createdAt,value
2019-01-09T00:00:32.664Z,3.30
2019-01-09T00:03:01.769Z,3.36
2019-01-09T00:05:30.643Z,3.24
2019-01-09T00:07:59.549Z,3.34
2019-01-09T00:10:31.338Z,3.31
2019-01-09T00:13:00.198Z,3.36
2019-01-09T00:15:29.751Z,3.38
2019-01-09T00:17:58.577Z,3.37
2019-01-09T00:20:27.806Z,3.31
2019-01-09T00:22:56.648Z,3.36
2019-01-09T00:25:25.627Z,3.35
2019-01-09T00:27:54.598Z,3.44
2019-01-09T00:30:23.542Z,3.41
2019-01-09T00:32:52.477Z,3.44
2019-01-09T00:35:21.492Z,3.41
2019-01-09T00:37:50.534Z,3.47
2019-01-09T00:40:19.788Z,3.44
2019-01-09T00:42:48.646Z,3.45
2019-01-09T00:45:17.618Z,3.42
2019-01-09T00:47:46.658Z,3.43
2019-01-09T00:50:15.497Z,3.44
2019-01-09T00:52:44.364Z,3.45
2019-01-09T00:55:13.436Z,3.47
2019-01-09T00:57:42.397Z,3.47
2019-01-09T01:00:13.742Z,3.46
2019-01-09T01:03:19.905Z,3.45
2019-01-09T01:06:22.168Z,3.40
2019-01-09T01:09:30.979Z,3.41
2019-01-09T01:12:47.265Z,3.43
2019-01-09T01:15:51.031Z,3.40
2019-01-09T01:18:55.418Z,3.42
2019-01-09T01:21:35.021Z,3.44
2019-01-09T01:25:06.054Z,3.44
2019-01-09T01:27:57.772Z,3.44
2019-01-09T01:31:11.933Z,3.44
2019-01-09T01:34:08.712Z,3.46
2019-01-09T01:37:00.213Z,3.42
2019-01-09T01:39:42.671Z,3.42
2019-01-09T01:42:49.165Z,3.38
2019-01-09T01:45:50.788Z,3.41
2019-01-09T01:48:44.785Z,3.38
2019-01-09T01:51:33.520Z,3.27
2019-01-09T01:54:15.965Z,3.31
2019-01-09T01:57:11.020Z,3.27
2019-01-09T01:59:52.353Z,3.26
2019-01-09T02:02:48.183Z,3.26
2019-01-09T02:05:44.818Z,3.24
2019-01-09T02:09:02.339Z,3.22
2019-01-09T02:12:01.082Z,3.28
2019-01-09T02:15:06.897Z,3.21
2019-01-09T02:17:56.511Z,3.23
2019-01-09T02:20:51.182Z,3.30
2019-01-09T02:23:54.933Z,3.22
2019-01-09T02:27:10.950Z,3.30
2019-01-09T02:30:22.778Z,3.29
2019-01-09T02:32:52.078Z,3.29
2019-01-09T02:35:20.943Z,3.27
2019-01-09T02:37:49.745Z,3.30
2019-01-09T02:40:18.924Z,3.31
2019-01-09T02:42:47.984Z,3.31
2019-01-09T02:45:17.152Z,3.26
2019-01-09T02:47:46.205Z,3.30
2019-01-09T02:50:15.075Z,3.28
2019-01-09T02:52:43.864Z,3.17
2019-01-09T02:55:13.027Z,3.27
2019-01-09T02:57:41.882Z,3.29
2019-01-09T03:00:12.530Z,3.22
2019-01-09T03:02:41.384Z,3.21
2019-01-09T03:05:10.237Z,3.26
2019-01-09T03:07:39.037Z,3.27
2019-01-09T03:10:08.368Z,3.28
2019-01-09T03:12:37.168Z,3.27
2019-01-09T03:15:06.187Z,3.30
2019-01-09T03:17:35.041Z,3.28
2019-01-09T03:20:04.292Z,3.28
2019-01-09T03:22:33.371Z,3.31
2019-01-09T03:25:02.298Z,3.25
2019-01-09T03:27:31.259Z,3.29
2019-01-09T03:30:00.417Z,3.30
2019-01-09T03:32:29.888Z,3.25
2019-01-09T03:34:58.784Z,3.23
2019-01-09T03:37:27.668Z,3.17
2019-01-09T03:39:56.529Z,3.20
2019-01-09T03:42:25.475Z,3.21
2019-01-09T03:44:54.346Z,3.23
2019-01-09T03:47:23.273Z,3.24
2019-01-09T03:49:52.045Z,3.24
2019-01-09T03:52:21.417Z,3.14
2019-01-09T03:54:50.194Z,3.01
2019-01-09T03:57:18.968Z,3.04
2019-01-09T03:59:48.025Z,3.18
2019-01-09T04:02:16.808Z,3.16
2019-01-09T04:04:45.596Z,3.17
2019-01-09T04:10:42.200Z,3.10
2019-01-09T04:13:11.134Z,3.10
2019-01-09T04:15:40.060Z,3.13
2019-01-09T04:18:09.177Z,3.07
2019-01-09T04:20:37.978Z,3.09
2019-01-09T04:23:06.760Z,3.15
2019-01-09T04:25:35.568Z,3.08
2019-01-09T04:28:04.366Z,2.94
2019-01-09T04:30:33.255Z,2.85
2019-01-09T04:33:02.062Z,2.91
2019-01-09T04:35:31.084Z,2.96
2019-01-09T04:37:59.955Z,2.85
2019-01-09T04:40:28.972Z,2.93
2019-01-09T04:42:57.748Z,2.94
2019-01-09T04:45:26.690Z,3.02
2019-01-09T04:47:55.499Z,2.96
2019-01-09T04:50:24.316Z,2.93
2019-01-09T04:52:53.094Z,3.03
2019-01-09T04:55:21.923Z,2.91
2019-01-09T04:57:50.713Z,2.99
2019-01-09T05:00:19.457Z,2.96
2019-01-09T05:02:48.268Z,3.02
2019-01-09T05:05:17.386Z,3.01
2019-01-09T05:07:46.287Z,3.05
2019-01-09T05:10:15.169Z,3.12
2019-01-09T05:12:43.976Z,3.15
2019-01-09T05:15:13.111Z,3.14
2019-01-09T05:17:42.009Z,3.14
2019-01-09T05:20:10.865Z,3.11
2019-01-09T05:22:39.637Z,3.12
2019-01-09T05:25:08.845Z,3.16
2019-01-09T05:27:37.634Z,3.26
2019-01-09T05:30:06.529Z,3.17
2019-01-09T05:32:35.328Z,3.15
2019-01-09T05:35:04.403Z,3.17
2019-01-09T05:37:33.213Z,3.16
2019-01-09T05:40:02.343Z,3.16
2019-01-09T05:42:31.205Z,3.12
2019-01-09T05:45:00.296Z,3.18
2019-01-09T05:47:29.065Z,3.17
2019-01-09T05:49:58.216Z,3.13
2019-01-09T05:52:26.990Z,3.09
2019-01-09T05:54:56.033Z,3.17
2019-01-09T05:57:25.145Z,3.13
2019-01-09T05:59:54.265Z,3.17
2019-01-09T06:02:23.320Z,3.07
2019-01-09T06:04:52.160Z,3.13
2019-01-09T06:07:20.953Z,3.04
2019-01-09T06:09:50.291Z,3.09
2019-01-09T06:12:19.407Z,3.15
2019-01-09T06:14:48.208Z,3.14
2019-01-09T06:17:17.122Z,3.17
2019-01-09T06:19:46.284Z,3.14
2019-01-09T06:22:15.057Z,3.15
2019-01-09T06:24:46.396Z,3.12
2019-01-09T06:27:15.543Z,3.09
2019-01-09T06:29:44.765Z,3.15
2019-01-09T06:32:13.922Z,3.15
2019-01-09T06:34:42.934Z,3.09
2019-01-09T06:37:11.840Z,3.08
2019-01-09T06:39:40.659Z,3.10
2019-01-09T06:42:09.488Z,3.17
2019-01-09T06:44:38.605Z,3.16
2019-01-09T06:47:07.464Z,3.13
2019-01-09T06:49:36.424Z,3.13
2019-01-09T06:52:05.401Z,3.13
2019-01-09T06:54:35.043Z,3.20
2019-01-09T06:57:03.980Z,3.15
2019-01-09T06:59:34.534Z,3.18
2019-01-09T07:02:03.293Z,3.19
2019-01-09T07:04:32.346Z,3.20
2019-01-09T07:07:01.352Z,3.19
2019-01-09T07:09:30.135Z,3.23
2019-01-09T07:11:59.357Z,3.24
2019-01-09T07:14:28.428Z,3.27
2019-01-09T07:16:57.270Z,3.25
2019-01-09T07:19:26.076Z,3.29
2019-01-09T07:21:54.900Z,3.26
2019-01-09T07:24:23.759Z,3.24
2019-01-09T07:26:52.915Z,3.19
2019-01-09T07:29:22.021Z,3.28
2019-01-09T07:31:50.810Z,3.22
2019-01-09T07:34:19.687Z,3.23
2019-01-09T07:36:48.493Z,3.25
2019-01-09T07:39:17.277Z,3.15
2019-01-09T07:41:46.133Z,3.22
2019-01-09T07:44:15.295Z,3.29
2019-01-09T07:46:44.438Z,3.29
2019-01-09T07:49:13.229Z,3.18
2019-01-09T07:51:42.003Z,3.22
2019-01-09T07:54:11.137Z,3.20
2019-01-09T07:57:16.722Z,3.19
2019-01-09T07:59:49.138Z,3.20
2019-01-09T08:02:17.964Z,3.23
2019-01-09T08:04:47.058Z,3.24
2019-01-09T08:07:16.156Z,3.20
2019-01-09T08:09:45.005Z,3.23
2019-01-09T08:12:13.910Z,3.21
2019-01-09T08:14:43.027Z,3.17
2019-01-09T08:17:12.034Z,3.29
2019-01-09T08:19:40.793Z,3.21
2019-01-09T08:22:09.673Z,3.27
2019-01-09T08:24:38.508Z,3.23
2019-01-09T08:27:07.618Z,3.24
2019-01-09T08:29:36.697Z,3.30
2019-01-09T08:32:05.625Z,3.35
2019-01-09T08:34:34.660Z,3.25
2019-01-09T08:37:03.528Z,3.24
2019-01-09T08:39:33.381Z,3.21
2019-01-09T08:42:02.143Z,3.20
2019-01-09T08:44:31.208Z,3.11
2019-01-09T08:50:28.405Z,3.21
2019-01-09T08:52:57.742Z,3.20
2019-01-09T08:55:26.799Z,3.21
2019-01-09T08:57:55.605Z,3.35
2019-01-09T09:00:24.410Z,3.29
2019-01-09T09:02:53.161Z,3.28
2019-01-09T09:05:21.944Z,3.28
2019-01-09T09:07:58.778Z,3.29
2019-01-09T09:10:27.901Z,3.17
2019-01-09T09:12:56.675Z,3.13
2019-01-09T09:15:25.473Z,3.01
2019-01-09T09:17:54.416Z,2.99
2019-01-09T09:20:23.878Z,2.92
2019-01-09T09:22:52.633Z,2.85
2019-01-09T09:25:21.507Z,2.88
2019-01-09T09:27:50.272Z,2.80
2019-01-09T09:30:19.497Z,2.72
2019-01-09T09:32:48.622Z,2.84
2019-01-09T09:35:17.746Z,2.79
2019-01-09T09:37:46.800Z,2.67
2019-01-09T09:40:18.029Z,2.74
2019-01-09T09:42:46.776Z,2.72
2019-01-09T09:45:15.748Z,2.95
2019-01-09T09:47:44.858Z,2.94
2019-01-09T09:50:14.743Z,2.93
2019-01-09T09:52:43.599Z,2.96
2019-01-09T09:55:13.115Z,3.06
2019-01-09T09:57:42.352Z,2.97
2019-01-09T10:00:15.381Z,3.01
2019-01-09T10:02:44.250Z,3.14
2019-01-09T10:05:13.125Z,3.04
2019-01-09T10:07:42.204Z,3.07
2019-01-09T10:10:12.085Z,3.03
2019-01-09T10:12:41.136Z,3.09
2019-01-09T10:15:11.120Z,3.04
2019-01-09T10:17:40.228Z,3.17
2019-01-09T10:20:11.789Z,3.19
2019-01-09T10:22:41.302Z,3.17
2019-01-09T10:25:10.562Z,3.23
2019-01-09T10:27:39.393Z,3.23
2019-01-09T10:30:12.286Z,3.19
2019-01-09T10:32:41.343Z,3.22
2019-01-09T10:35:10.382Z,3.26
2019-01-09T10:37:39.297Z,3.35
2019-01-09T10:40:09.768Z,3.41
2019-01-09T10:42:38.614Z,3.42
2019-01-09T10:45:08.263Z,3.38
2019-01-09T10:47:37.129Z,3.52
2019-01-09T10:50:10.039Z,3.48
2019-01-09T10:52:39.173Z,3.44
2019-01-09T10:55:08.848Z,3.41
2019-01-09T10:57:38.084Z,3.41
2019-01-09T11:00:09.813Z,3.35
2019-01-09T11:02:38.643Z,3.15
2019-01-09T11:05:08.860Z,3.03
2019-01-09T11:07:37.967Z,3.07
2019-01-09T11:10:07.373Z,3.00
2019-01-09T11:12:36.306Z,2.92
2019-01-09T11:15:06.238Z,2.98
2019-01-09T11:17:35.010Z,3.07
2019-01-09T11:20:08.118Z,3.03
2019-01-09T11:22:36.888Z,3.07
2019-01-09T11:25:08.100Z,3.14
2019-01-09T11:27:36.880Z,3.02
2019-01-09T11:30:07.872Z,2.92
2019-01-09T11:32:36.640Z,3.07
2019-01-09T11:35:05.802Z,2.96
2019-01-09T11:37:34.838Z,3.11
2019-01-09T11:40:04.574Z,3.12
2019-01-09T11:42:33.342Z,3.13
2019-01-09T11:45:02.113Z,3.05
2019-01-09T11:47:31.248Z,3.16
2019-01-09T11:50:01.412Z,3.21
2019-01-09T11:52:30.203Z,3.22
2019-01-09T11:54:59.272Z,3.13
2019-01-09T11:57:28.371Z,3.02
2019-01-09T11:59:57.414Z,2.92
2019-01-09T12:02:26.583Z,2.99
2019-01-09T12:04:55.365Z,2.95
2019-01-09T12:07:24.575Z,2.97
2019-01-09T12:09:53.709Z,3.08
2019-01-09T12:12:22.854Z,3.05
2019-01-09T12:14:51.674Z,3.00
2019-01-09T12:17:20.550Z,3.03
2019-01-09T12:19:49.407Z,3.14
2019-01-09T12:22:18.219Z,3.07
2019-01-09T12:24:46.994Z,3.13
2019-01-09T12:27:15.919Z,3.03
2019-01-09T12:29:44.906Z,3.08
2019-01-09T12:32:15.359Z,2.95
2019-01-09T12:34:44.257Z,2.94
2019-01-09T12:37:13.061Z,3.00
2019-01-09T12:39:41.850Z,3.09
2019-01-09T12:42:10.994Z,3.10
2019-01-09T12:44:40.158Z,3.10
2019-01-09T12:47:20.419Z,3.27
2019-01-09T12:49:49.225Z,3.22
2019-01-09T12:52:21.374Z,3.10
2019-01-09T12:54:50.284Z,3.17
2019-01-09T12:57:19.117Z,3.06
2019-01-09T12:59:48.702Z,3.15
2019-01-09T13:02:17.485Z,3.10
2019-01-09T13:04:46.782Z,2.99
2019-01-09T13:07:15.858Z,3.07
2019-01-09T13:09:45.741Z,3.00
2019-01-09T13:12:14.940Z,2.95
2019-01-09T13:14:43.696Z,3.01
2019-01-09T13:17:12.469Z,3.03
2019-01-09T13:19:41.224Z,2.99
2019-01-09T13:22:10.045Z,2.87
2019-01-09T13:24:38.931Z,2.86
2019-01-09T13:27:07.838Z,3.05
2019-01-09T13:33:04.007Z,2.96
2019-01-09T13:35:32.800Z,3.01
2019-01-09T13:38:03.989Z,3.15
2019-01-09T13:40:34.395Z,2.99
2019-01-09T13:43:03.310Z,2.93
2019-01-09T13:45:32.251Z,2.95
2019-01-09T13:48:01.170Z,2.97
2019-01-09T13:50:30.064Z,2.91
2019-01-09T13:52:58.942Z,2.96
2019-01-09T13:55:27.822Z,2.94
2019-01-09T13:57:56.756Z,3.02
2019-01-09T14:00:25.862Z,3.11
2019-01-09T14:02:55.733Z,3.13
2019-01-09T14:05:24.818Z,3.01
2019-01-09T14:07:54.289Z,2.94
2019-01-09T14:10:27.469Z,2.98
2019-01-09T14:12:56.326Z,2.83
2019-01-09T14:15:26.217Z,2.77
2019-01-09T14:17:55.208Z,2.84
2019-01-09T14:20:24.122Z,2.84
2019-01-09T14:22:53.241Z,2.87
2019-01-09T14:25:22.504Z,2.90
2019-01-09T14:27:51.281Z,2.82
2019-01-09T14:30:23.613Z,2.87
2019-01-09T14:32:52.425Z,2.82
2019-01-09T14:35:21.621Z,2.89
2019-01-09T14:37:50.639Z,2.91
2019-01-09T14:40:19.632Z,2.88
2019-01-09T14:42:48.743Z,2.81
2019-01-09T14:45:17.846Z,2.92
2019-01-09T14:47:46.769Z,2.76
2019-01-09T14:50:17.936Z,2.80
2019-01-09T14:52:47.057Z,2.74
2019-01-09T14:55:16.545Z,2.77
2019-01-09T14:57:45.913Z,2.62
2019-01-09T15:00:20.390Z,2.64
2019-01-09T15:02:50.187Z,2.71
2019-01-09T15:05:19.493Z,2.64
2019-01-09T15:07:48.709Z,2.75
2019-01-09T15:10:23.098Z,2.77
2019-01-09T15:12:52.104Z,2.72
2019-01-09T15:15:21.443Z,2.63
2019-01-09T15:17:50.270Z,2.74
2019-01-09T15:20:19.479Z,2.88
2019-01-09T15:22:48.373Z,2.86
2019-01-09T15:25:17.787Z,2.83
2019-01-09T15:27:46.628Z,2.91
2019-01-09T15:30:21.108Z,2.93
2019-01-09T15:32:50.026Z,2.84
2019-01-09T15:35:18.945Z,2.83
2019-01-09T15:37:47.821Z,2.83
2019-01-09T15:40:21.967Z,2.75
2019-01-09T15:42:50.876Z,2.88
2019-01-09T15:45:19.661Z,2.87
2019-01-09T15:47:48.507Z,2.85
2019-01-09T15:50:19.003Z,2.96
2019-01-09T15:52:48.051Z,2.91
2019-01-09T15:55:16.966Z,2.91
2019-01-09T15:57:46.081Z,2.84
2019-01-09T16:00:18.064Z,2.86
2019-01-09T16:02:47.007Z,2.99
2019-01-09T16:05:16.132Z,2.91
2019-01-09T16:07:45.266Z,2.97
2019-01-09T16:10:14.995Z,2.95
2019-01-09T16:12:43.805Z,2.96
2019-01-09T16:15:14.355Z,2.90
2019-01-09T16:17:43.767Z,2.99
2019-01-09T16:20:16.954Z,3.01
2019-01-09T16:22:44.077Z,2.99
2019-01-09T16:25:14.285Z,2.95
2019-01-09T16:31:32.314Z,2.97
2019-01-09T16:34:01.115Z,2.92
2019-01-09T16:36:30.923Z,2.97
2019-01-09T16:38:59.961Z,2.99
2019-01-09T16:41:29.157Z,2.99
2019-01-09T16:43:57.970Z,3.01
2019-01-09T16:46:26.732Z,2.98
2019-01-09T16:48:55.947Z,3.02
2019-01-09T16:51:24.833Z,2.95
2019-01-09T16:53:53.752Z,3.04
2019-01-09T16:56:22.929Z,2.95
2019-01-09T16:58:52.563Z,2.95
2019-01-09T17:01:21.817Z,3.05
2019-01-09T17:03:50.608Z,3.08
2019-01-09T17:06:19.561Z,3.00
2019-01-09T17:08:48.719Z,3.00
2019-01-09T17:11:17.680Z,2.98
2019-01-09T17:13:46.763Z,3.02
2019-01-09T17:16:15.722Z,2.95
2019-01-09T17:18:47.027Z,2.94
2019-01-09T17:21:19.137Z,2.94
2019-01-09T17:23:48.906Z,3.02
2019-01-09T17:26:17.900Z,2.98
2019-01-09T17:28:47.007Z,2.92
2019-01-09T17:31:16.253Z,3.01
2019-01-09T17:33:45.023Z,2.95
2019-01-09T17:36:14.289Z,2.87
2019-01-09T17:38:46.625Z,2.97
2019-01-09T17:41:15.818Z,3.00
2019-01-09T17:43:44.803Z,3.00
2019-01-09T17:46:13.829Z,2.95
2019-01-09T17:48:44.727Z,2.98
2019-01-09T17:51:13.648Z,3.02
2019-01-09T17:53:42.424Z,2.90
2019-01-09T17:56:11.516Z,2.90
2019-01-09T17:58:40.277Z,2.92
2019-01-09T18:01:09.457Z,2.92
2019-01-09T18:03:38.458Z,2.94
2019-01-09T18:06:13.717Z,2.95
2019-01-09T18:08:42.565Z,2.87
2019-01-09T18:11:12.442Z,2.86
2019-01-09T18:13:41.342Z,2.94
2019-01-09T18:16:10.107Z,2.97
2019-01-09T18:18:38.880Z,2.96
2019-01-09T18:21:13.923Z,2.94
2019-01-09T18:23:42.856Z,2.92
2019-01-09T18:26:12.039Z,2.95
2019-01-09T18:28:40.851Z,2.97
2019-01-09T18:32:05.771Z,2.88
2019-01-09T18:35:01.648Z,2.85
2019-01-09T18:37:54.410Z,2.94
2019-01-09T18:41:00.262Z,2.92
2019-01-09T18:43:55.075Z,2.86
2019-01-09T18:46:46.681Z,2.77
2019-01-09T18:49:49.610Z,2.86
2019-01-09T18:52:27.760Z,2.81
2019-01-09T18:54:56.545Z,2.92
2019-01-09T18:57:25.570Z,2.86
2019-01-09T18:59:54.437Z,2.80
2019-01-09T19:02:23.549Z,2.77
2019-01-09T19:04:52.578Z,2.81
2019-01-09T19:07:21.639Z,2.79
2019-01-09T19:09:50.489Z,2.72
2019-01-09T19:12:19.322Z,2.77
2019-01-09T19:14:48.117Z,2.78
2019-01-09T19:17:17.000Z,2.77
2019-01-09T19:19:45.873Z,2.80
2019-01-09T19:22:25.314Z,2.78
2019-01-09T19:24:54.495Z,2.78
2019-01-09T19:27:26.147Z,2.64
2019-01-09T19:29:55.030Z,2.79
2019-01-09T19:32:24.109Z,2.80
2019-01-09T19:34:53.028Z,2.79
2019-01-09T19:37:22.122Z,2.76
2019-01-09T19:39:51.410Z,2.67
2019-01-09T19:42:20.561Z,2.79
2019-01-09T19:44:49.573Z,2.66
2019-01-09T19:47:19.788Z,2.81
2019-01-09T19:49:48.928Z,2.71
2019-01-09T19:52:29.759Z,2.67
2019-01-09T19:54:58.613Z,2.74
2019-01-09T19:57:27.491Z,2.70
2019-01-09T19:59:56.557Z,2.64
2019-01-09T20:02:25.731Z,2.66
2019-01-09T20:04:54.882Z,2.57
2019-01-09T20:07:23.676Z,2.56
2019-01-09T20:09:52.498Z,2.71
2019-01-09T20:12:31.142Z,2.73
2019-01-09T20:15:00.723Z,2.59
2019-01-09T20:17:29.609Z,2.55
2019-01-09T20:19:58.970Z,2.59
2019-01-09T20:22:49.215Z,2.58
2019-01-09T20:25:18.925Z,2.60
2019-01-09T20:27:47.999Z,2.61
2019-01-09T20:30:36.665Z,2.51
2019-01-09T20:33:05.735Z,2.62
2019-01-09T20:35:34.837Z,2.64
2019-01-09T20:38:03.697Z,2.67
2019-01-09T20:40:32.672Z,2.63
2019-01-09T20:43:01.586Z,2.50
2019-01-09T20:45:30.578Z,2.56
2019-01-09T20:47:59.744Z,2.55
2019-01-09T20:50:32.074Z,2.45
2019-01-09T20:53:00.938Z,2.38
2019-01-09T20:55:30.011Z,2.53
2019-01-09T20:57:59.479Z,2.51
2019-01-09T21:00:30.074Z,2.51
2019-01-09T21:03:04.697Z,2.36
2019-01-09T21:05:36.665Z,2.34
2019-01-09T21:08:06.185Z,2.40
2019-01-09T21:10:35.249Z,2.27
2019-01-09T21:13:04.448Z,2.38
2019-01-09T21:15:34.061Z,2.39
2019-01-09T21:18:03.561Z,2.34
2019-01-09T21:20:32.455Z,2.24
2019-01-09T21:23:01.854Z,2.31
2019-01-09T21:25:30.735Z,2.29
2019-01-09T21:27:59.801Z,2.17
2019-01-09T21:30:28.811Z,2.18
2019-01-09T21:32:57.575Z,2.17
2019-01-09T21:35:26.532Z,2.21
2019-01-09T21:37:55.318Z,2.21
2019-01-09T21:40:26.392Z,2.19
2019-01-09T21:42:55.523Z,2.16
2019-01-09T21:45:24.638Z,2.19
2019-01-09T21:47:54.073Z,2.20
2019-01-09T21:50:24.994Z,2.11
2019-01-09T21:52:54.053Z,2.19
2019-01-09T21:55:23.472Z,2.20
2019-01-09T21:57:52.425Z,2.21
2019-01-09T22:00:25.353Z,2.25
2019-01-09T22:02:54.486Z,2.23
2019-01-09T22:05:24.503Z,2.08
2019-01-09T22:07:53.561Z,2.19
2019-01-09T22:10:28.497Z,2.15
2019-01-09T22:12:57.369Z,2.20
2019-01-09T22:15:26.313Z,2.19
2019-01-09T22:17:55.232Z,2.11
2019-01-09T22:20:24.487Z,2.14
2019-01-09T22:22:53.265Z,2.01
2019-01-09T22:25:22.463Z,2.08
2019-01-09T22:27:51.399Z,2.12
2019-01-09T22:30:22.729Z,2.04
2019-01-09T22:32:51.653Z,2.10
2019-01-09T22:35:20.666Z,1.94
2019-01-09T22:37:49.512Z,2.01
2019-01-09T22:40:20.891Z,1.92
2019-01-09T22:42:50.002Z,1.96
2019-01-09T22:45:18.864Z,1.93
2019-01-09T22:47:48.098Z,2.01
2019-01-09T22:50:19.168Z,2.00
2019-01-09T22:52:48.298Z,1.96
2019-01-09T22:55:17.512Z,1.90
2019-01-09T22:57:46.414Z,2.03
2019-01-09T23:00:46.556Z,1.93
2019-01-09T23:03:15.576Z,1.84
2019-01-09T23:05:44.968Z,2.00
2019-01-09T23:08:13.883Z,1.88
2019-01-09T23:10:42.860Z,1.96
2019-01-09T23:13:12.062Z,1.95
2019-01-09T23:15:56.333Z,1.81
2019-01-09T23:18:25.467Z,1.86
2019-01-09T23:20:54.256Z,1.80
2019-01-09T23:23:23.164Z,1.78
2019-01-09T23:25:52.008Z,1.81
2019-01-09T23:28:20.960Z,1.81
2019-01-09T23:30:49.986Z,1.92
2019-01-09T23:33:18.935Z,1.79
2019-01-09T23:35:48.136Z,1.83
2019-01-09T23:38:17.024Z,1.86
2019-01-09T23:40:46.134Z,1.85
2019-01-09T23:43:14.890Z,1.87
2019-01-09T23:45:43.809Z,1.80
2019-01-09T23:48:12.932Z,1.71
2019-01-09T23:50:41.805Z,1.85
2019-01-09T23:53:10.636Z,1.89
2019-01-09T23:55:39.713Z,1.76
2019-01-09T23:58:08.830Z,1.79
